createdAt,value
2019-03-04T00:02:29.438Z,100.00
2019-03-04T00:05:03.044Z,100.00
2019-03-04T00:07:36.955Z,100.00
2019-03-04T00:10:10.804Z,100.00
2019-03-04T00:12:44.059Z,100.00
2019-03-04T00:15:17.281Z,100.00
2019-03-04T00:17:51.142Z,100.00
2019-03-04T00:20:24.139Z,100.00
2019-03-04T00:22:57.494Z,100.00
2019-03-04T00:25:31.352Z,100.00
2019-03-04T00:28:03.926Z,100.00
2019-03-04T00:30:36.932Z,100.00
2019-03-04T00:33:10.498Z,100.00
2019-03-04T00:35:43.613Z,100.00
2019-03-04T00:38:16.685Z,100.00
2019-03-04T00:40:50.092Z,100.00
2019-03-04T00:43:22.829Z,100.00
2019-03-04T00:45:55.775Z,100.00
2019-03-04T00:48:29.179Z,100.00
2019-03-04T00:51:02.973Z,100.00
2019-03-04T00:53:36.239Z,100.00
2019-03-04T00:56:10.582Z,100.00
2019-03-04T00:58:43.260Z,100.00
2019-03-04T01:01:16.616Z,100.00
2019-03-04T01:03:50.405Z,100.00
2019-03-04T01:06:23.545Z,100.00
2019-03-04T01:08:56.909Z,100.00
2019-03-04T01:11:30.238Z,100.00
2019-03-04T01:14:03.637Z,100.00
2019-03-04T01:16:37.332Z,99.98
2019-03-04T01:19:10.433Z,100.00
2019-03-04T01:21:43.425Z,100.00
2019-03-04T01:24:17.112Z,100.00
2019-03-04T01:26:50.135Z,100.00
2019-03-04T01:29:23.786Z,100.00
2019-03-04T01:31:57.025Z,100.00
2019-03-04T01:34:30.883Z,100.00
2019-03-04T01:37:04.639Z,99.92
2019-03-04T01:39:37.903Z,100.00
2019-03-04T01:42:11.105Z,99.76
2019-03-04T01:44:44.148Z,100.00
2019-03-04T01:47:17.671Z,100.00
2019-03-04T01:49:51.084Z,100.00
2019-03-04T01:52:23.684Z,99.45
2019-03-04T01:54:57.053Z,100.00
2019-03-04T01:57:30.065Z,100.00
2019-03-04T02:00:04.119Z,100.00
2019-03-04T02:02:38.509Z,99.90
2019-03-04T02:05:11.743Z,100.00
2019-03-04T02:07:44.869Z,100.00
2019-03-04T02:10:19.033Z,99.90
2019-03-04T02:12:53.036Z,99.90
2019-03-04T02:15:25.738Z,100.00
2019-03-04T02:17:58.765Z,100.00
2019-03-04T02:20:31.467Z,100.00
2019-03-04T02:23:04.633Z,99.31
2019-03-04T02:26:13.972Z,100.00
2019-03-04T02:28:47.752Z,98.95
2019-03-04T02:31:22.122Z,98.23
2019-03-04T02:33:55.712Z,97.36
2019-03-04T02:36:29.130Z,98.35
2019-03-04T02:39:02.184Z,97.63
2019-03-04T02:41:36.622Z,97.75
2019-03-04T02:44:11.447Z,98.32
2019-03-04T02:46:44.525Z,97.93
2019-03-04T02:49:18.158Z,98.75
2019-03-04T02:51:53.856Z,98.38
2019-03-04T02:54:26.781Z,99.26
2019-03-04T02:56:59.744Z,97.70
2019-03-04T02:59:32.802Z,99.30
2019-03-04T03:02:07.099Z,97.84
2019-03-04T03:04:40.590Z,98.92
2019-03-04T03:07:13.958Z,98.62
2019-03-04T03:09:46.300Z,96.72
2019-03-04T03:12:19.628Z,97.35
2019-03-04T03:14:52.292Z,97.15
2019-03-04T03:17:26.055Z,96.44
2019-03-04T03:19:59.104Z,96.96
2019-03-04T03:22:32.799Z,97.35
2019-03-04T03:25:06.675Z,96.20
2019-03-04T03:27:39.904Z,96.72
2019-03-04T03:30:12.744Z,95.57
2019-03-04T03:32:45.663Z,95.95
2019-03-04T03:35:18.682Z,96.10
2019-03-04T03:37:51.381Z,95.92
2019-03-04T03:40:24.339Z,96.13
2019-03-04T03:42:57.705Z,95.92
2019-03-04T03:45:31.140Z,96.79
2019-03-04T03:48:03.832Z,97.50
2019-03-04T03:50:36.407Z,96.40
2019-03-04T03:53:08.603Z,95.63
2019-03-04T03:55:41.943Z,96.18
2019-03-04T03:58:15.060Z,96.13
2019-03-04T04:00:47.302Z,95.54
2019-03-04T04:03:20.087Z,95.18
2019-03-04T04:05:53.095Z,96.33
2019-03-04T04:08:26.498Z,94.92
2019-03-04T04:11:00.007Z,93.40
2019-03-04T04:13:33.487Z,94.80
2019-03-04T04:16:06.484Z,94.97
2019-03-04T04:18:39.144Z,94.53
2019-03-04T04:21:12.416Z,94.66
2019-03-04T04:23:45.627Z,94.74
2019-03-04T04:26:22.163Z,93.22
2019-03-04T04:29:02.799Z,93.20
2019-03-04T04:31:35.776Z,93.75
2019-03-04T04:34:07.972Z,92.68
2019-03-04T04:36:40.647Z,91.66
2019-03-04T04:39:13.290Z,90.78
2019-03-04T04:41:46.664Z,89.56
2019-03-04T04:44:20.195Z,89.03
2019-03-04T04:46:54.706Z,87.47
2019-03-04T04:49:32.038Z,87.19
2019-03-04T04:52:05.071Z,87.88
2019-03-04T04:54:38.366Z,87.72
2019-03-04T04:57:11.968Z,86.60
2019-03-04T04:59:45.386Z,86.02
2019-03-04T05:02:19.061Z,84.42
2019-03-04T05:04:53.672Z,84.52
2019-03-04T05:07:26.297Z,81.27
2019-03-04T05:09:59.635Z,80.66
2019-03-04T05:12:32.699Z,81.77
2019-03-04T05:15:06.777Z,82.42
2019-03-04T05:17:39.914Z,82.48
2019-03-04T05:20:14.897Z,80.10
2019-03-04T05:22:48.211Z,80.59
2019-03-04T05:25:20.847Z,79.62
2019-03-04T05:27:53.945Z,80.75
2019-03-04T05:30:27.476Z,81.12
2019-03-04T05:33:00.855Z,80.24
2019-03-04T05:35:34.260Z,79.58
2019-03-04T05:38:07.984Z,81.83
2019-03-04T05:40:41.043Z,78.60
2019-03-04T05:43:14.888Z,78.87
2019-03-04T05:45:47.846Z,79.34
2019-03-04T05:48:21.156Z,79.67
2019-03-04T05:50:54.300Z,79.42
2019-03-04T05:53:27.331Z,78.08
2019-03-04T05:56:00.654Z,75.71
2019-03-04T05:58:34.407Z,75.39
2019-03-04T06:01:18.192Z,74.35
2019-03-04T06:03:51.226Z,74.91
2019-03-04T06:06:42.066Z,73.36
2019-03-04T06:09:15.878Z,71.84
2019-03-04T06:11:49.619Z,72.33
2019-03-04T23:14:00.131Z,100.00
2019-03-04T23:16:33.762Z,100.00
2019-03-04T23:19:07.573Z,100.00
2019-03-04T23:21:40.612Z,100.00
2019-03-04T23:24:13.607Z,100.00
2019-03-04T23:26:47.623Z,100.00
2019-03-04T23:29:21.037Z,100.00
2019-03-04T23:31:55.553Z,100.00
2019-03-04T23:34:29.156Z,100.00
2019-03-04T23:37:03.084Z,100.00
2019-03-04T23:39:36.456Z,100.00
2019-03-04T23:42:10.197Z,100.00
2019-03-04T23:44:42.950Z,100.00
2019-03-04T23:47:16.500Z,100.00
2019-03-04T23:50:25.393Z,100.00
2019-03-04T23:52:59.089Z,100.00
2019-03-04T23:55:32.167Z,100.00
2019-03-04T23:58:05.656Z,100.00
